Time;durP1;ratioP1;P1;durP2;ratioP2;P2;SDS_P1;SDS_P2;PMS_P1;PMS_P2;Temp;Humidity;BMP_temperature;BMP_pressure;BME280_temperature;BME280_humidity;BME280_pressure;Samples;Min_cycle;Max_cycle;Signal;HPM_P1;HPM_P2
2022/04/06 00:01:42;;;;;;;7.38;6.75;;;;;;;;;;5049509;28;20297;-60
2022/04/06 00:04:08;;;;;;;7.15;6.55;;;;;;;;;;5056614;28;20425;-60
2022/04/06 00:06:33;;;;;;;7.90;7.10;;;;;;;;;;5051268;28;20028;-59
2022/04/06 00:08:58;;;;;;;7.63;6.88;;;;;;;;;;5052441;28;20044;-59
2022/04/06 00:11:23;;;;;;;8.50;7.75;;;;;;;;;;5047470;28;20029;-61
2022/04/06 00:13:49;;;;;;;8.00;7.30;;;;;;;;;;5052911;28;20029;-60
2022/04/06 00:16:14;;;;;;;7.63;6.93;;;;;;;;;;5054628;28;20037;-60
2022/04/06 00:18:40;;;;;;;6.45;5.85;;;;;;;;;;5045378;28;20029;-60
2022/04/06 00:21:05;;;;;;;6.90;6.30;;;;;;;;;;5053092;28;20496;-60
2022/04/06 00:23:30;;;;;;;6.75;6.15;;;;;;;;;;5053435;28;20536;-60
2022/04/06 00:25:55;;;;;;;8.77;7.97;;;;;;;;;;5050009;28;20017;-59
2022/04/06 00:28:21;;;;;;;5.57;4.82;;;;;;;;;;5042649;28;20086;-59
2022/04/06 00:30:46;;;;;;;7.47;6.88;;;;;;;;;;5054454;28;20053;-59
2022/04/06 00:33:11;;;;;;;8.55;7.75;;;;;;;;;;5052045;28;20505;-60
2022/04/06 00:35:36;;;;;;;6.97;6.30;;;;;;;;;;5050372;28;20034;-60
2022/04/06 00:38:02;;;;;;;8.95;8.10;;;;;;;;;;5066222;28;20271;-60
2022/04/06 00:40:28;;;;;;;8.40;7.70;;;;;;;;;;5052879;28;20378;-60
2022/04/06 00:42:53;;;;;;;11.05;9.95;;;;;;;;;;5052283;28;20030;-60
2022/04/06 00:45:19;;;;;;;13.35;11.85;;;;;;;;;;5051992;28;20158;-60
2022/04/06 00:47:44;;;;;;;13.93;12.50;;;;;;;;;;5049061;28;20072;-60
2022/04/06 00:50:09;;;;;;;12.43;11.23;;;;;;;;;;5053671;28;20017;-58
2022/04/06 00:52:36;;;;;;;9.30;7.63;;;;;;;;;;5049065;28;20033;-60
2022/04/06 00:55:02;;;;;;;11.68;10.48;;;;;;;;;;5055050;28;20033;-60
2022/04/06 00:57:28;;;;;;;14.40;12.55;;;;;;;;;;5046037;28;20032;-59
2022/04/06 00:59:55;;;;;;;11.90;10.68;;;;;;;;;;5045765;28;20053;-60
2022/04/06 01:02:20;;;;;;;14.80;13.13;;;;;;;;;;5049000;28;20029;-59
2022/04/06 01:04:45;;;;;;;12.00;10.70;;;;;;;;;;5048113;28;20026;-60
2022/04/06 01:07:12;;;;;;;13.32;11.93;;;;;;;;;;5052827;28;20062;-59
2022/04/06 01:09:37;;;;;;;13.93;12.52;;;;;;;;;;5051085;28;20032;-60
2022/04/06 01:12:03;;;;;;;13.10;11.75;;;;;;;;;;5052283;28;20032;-59
2022/04/06 01:14:28;;;;;;;12.50;11.23;;;;;;;;;;5046959;28;20025;-59
2022/04/06 01:16:57;;;;;;;13.35;12.02;;;;;;;;;;5043972;28;20106;-59
2022/04/06 01:19:22;;;;;;;11.75;10.65;;;;;;;;;;5050104;28;20033;-59
2022/04/06 01:21:48;;;;;;;11.82;10.75;;;;;;;;;;5054726;28;20065;-59
2022/04/06 01:24:13;;;;;;;12.27;11.10;;;;;;;;;;5051959;28;20167;-60
2022/04/06 01:26:38;;;;;;;11.73;10.52;;;;;;;;;;5051010;28;20017;-59
2022/04/06 01:29:03;;;;;;;11.43;10.38;;;;;;;;;;5042812;28;20021;-59
2022/04/06 01:31:28;;;;;;;11.38;10.27;;;;;;;;;;5061436;28;20021;-60
2022/04/06 01:33:54;;;;;;;11.82;10.63;;;;;;;;;;5036356;28;20052;-61
2022/04/06 01:36:19;;;;;;;10.73;9.63;;;;;;;;;;5048871;28;20029;-60
2022/04/06 01:38:44;;;;;;;9.25;8.38;;;;;;;;;;5051001;28;20037;-61
2022/04/06 01:41:10;;;;;;;9.13;8.23;;;;;;;;;;5050917;28;20028;-60
2022/04/06 01:43:35;;;;;;;10.20;9.20;;;;;;;;;;5049839;28;20120;-59
2022/04/06 01:46:01;;;;;;;10.32;9.32;;;;;;;;;;5036422;28;20533;-60
2022/04/06 01:48:26;;;;;;;10.88;9.10;;;;;;;;;;5051468;28;20023;-60
2022/04/06 01:53:36;;;;;;;9.40;8.48;;;;;;;;;;5048836;28;20112;-59
2022/04/06 01:56:01;;;;;;;9.02;8.10;;;;;;;;;;5051170;28;20056;-60
2022/04/06 01:58:26;;;;;;;9.27;8.48;;;;;;;;;;5034754;28;20126;-60
2022/04/06 02:00:52;;;;;;;8.38;7.50;;;;;;;;;;5044540;28;20033;-60
2022/04/06 02:03:17;;;;;;;8.20;7.30;;;;;;;;;;5052509;28;20016;-60
2022/04/06 02:05:42;;;;;;;8.32;7.43;;;;;;;;;;5046425;28;20079;-59
2022/04/06 02:08:08;;;;;;;9.27;8.38;;;;;;;;;;5031844;28;20018;-60
2022/04/06 02:10:33;;;;;;;9.57;8.73;;;;;;;;;;5047384;28;20342;-60
2022/04/06 02:12:59;;;;;;;9.13;7.95;;;;;;;;;;5049882;28;20020;-60
2022/04/06 02:15:25;;;;;;;8.98;8.18;;;;;;;;;;5037687;28;20112;-60
2022/04/06 02:17:50;;;;;;;9.95;9.05;;;;;;;;;;5032226;28;20108;-60
2022/04/06 02:20:16;;;;;;;8.25;7.45;;;;;;;;;;5040338;28;20107;-60
2022/04/06 02:22:42;;;;;;;8.85;7.95;;;;;;;;;;5048191;28;20108;-60
2022/04/06 02:25:07;;;;;;;9.27;8.38;;;;;;;;;;5050645;28;20477;-60
2022/04/06 02:27:32;;;;;;;10.05;9.15;;;;;;;;;;5041918;28;20103;-60
2022/04/06 02:29:58;;;;;;;10.07;8.80;;;;;;;;;;5053594;28;20028;-60
2022/04/06 02:32:23;;;;;;;11.05;9.95;;;;;;;;;;5045237;28;20137;-59
2022/04/06 02:34:48;;;;;;;10.73;9.65;;;;;;;;;;5051746;28;20036;-60
2022/04/06 02:37:13;;;;;;;11.80;10.20;;;;;;;;;;5032913;28;20037;-60
2022/04/06 02:39:39;;;;;;;13.27;11.38;;;;;;;;;;5045769;28;20021;-60
2022/04/06 02:42:04;;;;;;;10.27;9.18;;;;;;;;;;5040672;28;20051;-59
2022/04/06 02:44:30;;;;;;;13.05;11.65;;;;;;;;;;5051182;28;20485;-59
2022/04/06 02:46:55;;;;;;;11.65;10.07;;;;;;;;;;5051203;28;20153;-60
2022/04/06 02:49:20;;;;;;;15.95;12.98;;;;;;;;;;5047975;28;20026;-59
2022/04/06 02:51:46;;;;;;;17.23;14.27;;;;;;;;;;5044502;28;20025;-59
2022/04/06 02:54:12;;;;;;;13.43;12.02;;;;;;;;;;5057409;28;20517;-59
2022/04/06 02:56:37;;;;;;;17.88;13.57;;;;;;;;;;5048107;28;20028;-60
2022/04/06 02:59:02;;;;;;;16.95;13.27;;;;;;;;;;5054731;28;20123;-59
2022/04/06 03:01:28;;;;;;;16.70;12.90;;;;;;;;;;5041447;28;20072;-59
2022/04/06 03:03:54;;;;;;;12.45;11.15;;;;;;;;;;5040877;28;20029;-59
2022/04/06 03:06:20;;;;;;;12.55;10.43;;;;;;;;;;5052335;28;20415;-60
2022/04/06 03:08:45;;;;;;;14.30;11.82;;;;;;;;;;5043060;28;20032;-61
2022/04/06 03:11:11;;;;;;;11.68;10.45;;;;;;;;;;5045259;28;20025;-61
2022/04/06 03:13:36;;;;;;;10.85;9.75;;;;;;;;;;5044924;28;20021;-60
2022/04/06 03:16:01;;;;;;;10.93;9.82;;;;;;;;;;5049637;28;20033;-60
2022/04/06 03:18:26;;;;;;;10.70;9.63;;;;;;;;;;5049082;28;20534;-60
2022/04/06 03:20:52;;;;;;;10.73;9.30;;;;;;;;;;5054479;28;20064;-60
2022/04/06 03:23:17;;;;;;;9.18;8.25;;;;;;;;;;5051443;28;20020;-60
2022/04/06 03:25:43;;;;;;;10.98;9.88;;;;;;;;;;5049141;28;20036;-60
2022/04/06 03:28:08;;;;;;;10.98;9.18;;;;;;;;;;5042460;28;20014;-61
2022/04/06 03:30:33;;;;;;;9.32;8.43;;;;;;;;;;5060141;28;20156;-60
2022/04/06 03:32:58;;;;;;;10.90;9.63;;;;;;;;;;5048038;28;20050;-61
2022/04/06 03:35:23;;;;;;;10.63;9.20;;;;;;;;;;5040940;28;20025;-60
2022/04/06 03:37:52;;;;;;;9.00;8.10;;;;;;;;;;5035326;28;20025;-60
2022/04/06 03:40:17;;;;;;;9.48;8.57;;;;;;;;;;5047036;28;20025;-60
2022/04/06 03:42:42;;;;;;;9.77;8.75;;;;;;;;;;5045994;28;20409;-60
2022/04/06 03:45:08;;;;;;;9.73;8.73;;;;;;;;;;5055111;28;20035;-61
2022/04/06 03:47:34;;;;;;;8.88;7.97;;;;;;;;;;5074979;28;20542;-61
2022/04/06 03:50:00;;;;;;;8.68;7.82;;;;;;;;;;5061651;28;20042;-60
2022/04/06 03:52:26;;;;;;;9.43;8.52;;;;;;;;;;5048054;28;20024;-60
2022/04/06 03:54:51;;;;;;;8.77;7.88;;;;;;;;;;5051212;28;20032;-59
2022/04/06 03:57:16;;;;;;;8.65;7.65;;;;;;;;;;5040722;28;22131;-61
2022/04/06 03:59:42;;;;;;;8.57;7.72;;;;;;;;;;5046075;28;20469;-59
2022/04/06 04:02:07;;;;;;;8.80;7.90;;;;;;;;;;5052288;28;20367;-59
2022/04/06 04:04:32;;;;;;;8.35;7.47;;;;;;;;;;5050942;28;20021;-59
2022/04/06 04:06:57;;;;;;;8.70;7.93;;;;;;;;;;5050729;28;20108;-59
2022/04/06 04:09:22;;;;;;;8.68;7.88;;;;;;;;;;5055285;28;20029;-60
2022/04/06 04:11:48;;;;;;;7.75;6.95;;;;;;;;;;5044697;28;20473;-60
2022/04/06 04:14:14;;;;;;;8.85;7.85;;;;;;;;;;5043259;28;20029;-60
2022/04/06 04:16:39;;;;;;;7.43;6.72;;;;;;;;;;5058816;28;20381;-60
2022/04/06 04:19:04;;;;;;;8.43;7.55;;;;;;;;;;5062537;28;20017;-60
2022/04/06 04:21:32;;;;;;;7.45;6.20;;;;;;;;;;5045104;28;20009;-60
2022/04/06 04:23:58;;;;;;;7.50;6.80;;;;;;;;;;5052142;28;20017;-59
2022/04/06 04:26:23;;;;;;;7.75;7.05;;;;;;;;;;5050013;28;20477;-59
2022/04/06 04:28:48;;;;;;;6.45;5.85;;;;;;;;;;5043718;28;20043;-59
2022/04/06 04:31:14;;;;;;;6.25;5.65;;;;;;;;;;5048036;28;20036;-59
2022/04/06 04:33:39;;;;;;;6.75;6.07;;;;;;;;;;5051999;28;20245;-60
2022/04/06 04:36:04;;;;;;;6.93;6.00;;;;;;;;;;5039517;28;20021;-59
2022/04/06 04:38:29;;;;;;;6.78;6.18;;;;;;;;;;5052550;28;20037;-60
2022/04/06 04:40:54;;;;;;;5.60;5.10;;;;;;;;;;5049136;28;20041;-59
2022/04/06 04:43:20;;;;;;;6.07;5.55;;;;;;;;;;5052273;28;20029;-59
2022/04/06 04:45:45;;;;;;;7.05;6.43;;;;;;;;;;5047841;28;20032;-63
2022/04/06 04:48:10;;;;;;;4.68;4.28;;;;;;;;;;5051399;28;20032;-59
2022/04/06 04:50:36;;;;;;;5.68;5.10;;;;;;;;;;5047682;28;20033;-58
2022/04/06 04:53:01;;;;;;;6.25;5.32;;;;;;;;;;5049187;28;20029;-60
2022/04/06 04:55:26;;;;;;;6.40;5.80;;;;;;;;;;5036324;28;20042;-60
2022/04/06 04:57:51;;;;;;;6.05;5.45;;;;;;;;;;5040972;28;20048;-59
2022/04/06 05:00:16;;;;;;;5.95;5.35;;;;;;;;;;5046343;28;20127;-61
2022/04/06 05:02:42;;;;;;;5.88;5.30;;;;;;;;;;5048238;28;20048;-60
2022/04/06 05:05:08;;;;;;;5.22;4.32;;;;;;;;;;5046817;28;20025;-59
2022/04/06 05:07:37;;;;;;;5.25;4.75;;;;;;;;;;5050156;28;20056;-59
2022/04/06 05:10:04;;;;;;;5.80;4.97;;;;;;;;;;5049308;28;20028;-60
2022/04/06 05:12:29;;;;;;;5.82;5.32;;;;;;;;;;5040443;28;20037;-59
2022/04/06 05:14:54;;;;;;;6.95;6.20;;;;;;;;;;5058500;28;20034;-59
2022/04/06 05:17:20;;;;;;;6.32;5.55;;;;;;;;;;5034565;28;20026;-60
2022/04/06 05:19:45;;;;;;;6.38;5.75;;;;;;;;;;5050247;28;20397;-60
2022/04/06 05:22:10;;;;;;;6.03;5.53;;;;;;;;;;5041565;28;20436;-61
2022/04/06 05:24:35;;;;;;;5.45;4.95;;;;;;;;;;5042158;28;20040;-59
2022/04/06 05:27:02;;;;;;;4.97;4.47;;;;;;;;;;5040523;28;20034;-60
2022/04/06 05:29:27;;;;;;;6.75;6.05;;;;;;;;;;5040644;28;20557;-59
2022/04/06 05:31:52;;;;;;;6.75;5.60;;;;;;;;;;5042706;28;20107;-59
2022/04/06 05:34:18;;;;;;;7.18;6.47;;;;;;;;;;5043219;28;20017;-60
2022/04/06 05:36:43;;;;;;;5.57;5.07;;;;;;;;;;5042578;28;20037;-59
2022/04/06 05:39:08;;;;;;;7.63;6.38;;;;;;;;;;5041856;28;20021;-60
2022/04/06 05:41:33;;;;;;;7.20;5.57;;;;;;;;;;5042557;28;20025;-60
2022/04/06 05:43:58;;;;;;;5.43;4.93;;;;;;;;;;5041181;28;20021;-60
2022/04/06 05:46:24;;;;;;;6.70;4.80;;;;;;;;;;5042985;28;20494;-59
2022/04/06 05:48:49;;;;;;;6.00;5.40;;;;;;;;;;5041872;28;20022;-59
2022/04/06 05:51:14;;;;;;;5.78;5.18;;;;;;;;;;5044130;28;20436;-59
2022/04/06 05:53:40;;;;;;;5.75;5.18;;;;;;;;;;5042349;28;20426;-59
2022/04/06 05:56:05;;;;;;;6.53;5.82;;;;;;;;;;5039931;28;20017;-60
2022/04/06 05:58:30;;;;;;;5.68;5.07;;;;;;;;;;5039723;28;20052;-60
2022/04/06 06:00:55;;;;;;;5.45;4.50;;;;;;;;;;5040797;28;20108;-59
2022/04/06 06:03:20;;;;;;;6.32;5.43;;;;;;;;;;5042593;28;20393;-61
2022/04/06 06:05:46;;;;;;;5.03;4.55;;;;;;;;;;5042892;28;20091;-60
2022/04/06 06:08:11;;;;;;;4.60;4.18;;;;;;;;;;5042219;28;20025;-59
2022/04/06 06:10:37;;;;;;;4.93;4.43;;;;;;;;;;5042400;28;20095;-59
2022/04/06 06:13:02;;;;;;;5.28;4.05;;;;;;;;;;5041341;28;20064;-60
2022/04/06 06:15:27;;;;;;;4.78;4.38;;;;;;;;;;5040834;28;20033;-60
2022/04/06 06:17:53;;;;;;;5.28;4.78;;;;;;;;;;5040830;28;20041;-59
2022/04/06 06:20:18;;;;;;;3.78;3.47;;;;;;;;;;5041246;28;20025;-60
2022/04/06 06:22:43;;;;;;;4.18;3.50;;;;;;;;;;5040994;28;20079;-60
2022/04/06 06:25:09;;;;;;;3.28;2.97;;;;;;;;;;5042585;28;20469;-60
2022/04/06 06:27:40;;;;;;;4.63;4.22;;;;;;;;;;5041427;28;20427;-60
2022/04/06 06:30:06;;;;;;;5.10;3.60;;;;;;;;;;5039992;28;20017;-60
2022/04/06 06:32:32;;;;;;;4.05;3.63;;;;;;;;;;5053493;28;20027;-60
2022/04/06 06:34:57;;;;;;;3.60;3.22;;;;;;;;;;5051538;28;20031;-60
2022/04/06 06:37:22;;;;;;;3.90;3.45;;;;;;;;;;5038563;28;20156;-60
2022/04/06 06:39:47;;;;;;;4.38;3.30;;;;;;;;;;5033586;28;20029;-60
2022/04/06 06:42:13;;;;;;;4.05;3.65;;;;;;;;;;5036456;28;20079;-60
2022/04/06 06:44:38;;;;;;;3.50;3.22;;;;;;;;;;5037916;28;20025;-60
2022/04/06 06:47:03;;;;;;;3.83;3.53;;;;;;;;;;5035204;28;20064;-60
2022/04/06 06:49:28;;;;;;;3.58;3.25;;;;;;;;;;5038547;28;20516;-61
2022/04/06 06:51:54;;;;;;;4.13;3.72;;;;;;;;;;5034388;28;20104;-59
2022/04/06 06:54:19;;;;;;;3.42;3.13;;;;;;;;;;5043924;28;20496;-60
2022/04/06 06:56:44;;;;;;;3.85;3.30;;;;;;;;;;5039146;28;20184;-60
2022/04/06 06:59:09;;;;;;;3.60;3.30;;;;;;;;;;5039716;28;21215;-60
2022/04/06 07:01:35;;;;;;;4.43;4.03;;;;;;;;;;5052124;28;20032;-60
2022/04/06 07:04:00;;;;;;;3.45;3.15;;;;;;;;;;5064394;28;20025;-60
2022/04/06 07:06:25;;;;;;;4.47;3.55;;;;;;;;;;5048164;28;20024;-60
2022/04/06 07:08:52;;;;;;;3.92;3.20;;;;;;;;;;5052502;28;20013;-60
2022/04/06 07:11:17;;;;;;;3.55;3.25;;;;;;;;;;5052175;28;20017;-59
2022/04/06 07:13:42;;;;;;;4.55;3.72;;;;;;;;;;5039865;28;20035;-60
2022/04/06 07:16:07;;;;;;;4.53;3.05;;;;;;;;;;5051572;28;20030;-60
2022/04/06 07:18:33;;;;;;;3.97;3.40;;;;;;;;;;5041266;28;20038;-60
2022/04/06 07:20:59;;;;;;;3.90;3.40;;;;;;;;;;5040692;28;20512;-60
2022/04/06 07:23:24;;;;;;;4.18;3.70;;;;;;;;;;5044251;28;20033;-60
2022/04/06 07:25:49;;;;;;;4.85;4.13;;;;;;;;;;5055910;28;20036;-60
2022/04/06 07:28:14;;;;;;;4.57;3.45;;;;;;;;;;5038916;28;20013;-60
2022/04/06 07:30:40;;;;;;;3.63;3.15;;;;;;;;;;5028761;28;20030;-60
2022/04/06 07:33:05;;;;;;;5.40;3.42;;;;;;;;;;5051274;28;20037;-60
2022/04/06 07:35:31;;;;;;;3.60;3.20;;;;;;;;;;5056533;28;20021;-60
2022/04/06 07:37:57;;;;;;;6.22;3.53;;;;;;;;;;5035339;28;20079;-60
2022/04/06 07:40:22;;;;;;;4.57;3.60;;;;;;;;;;5034767;28;20030;-59
2022/04/06 07:42:49;;;;;;;4.55;3.10;;;;;;;;;;5041782;28;20100;-59
2022/04/06 07:45:18;;;;;;;6.05;3.15;;;;;;;;;;5043931;28;20120;-59
2022/04/06 07:47:45;;;;;;;4.85;3.88;;;;;;;;;;5043908;28;20029;-59
2022/04/06 07:50:12;;;;;;;3.47;3.03;;;;;;;;;;5071316;28;20107;-59
2022/04/06 07:52:38;;;;;;;5.05;3.60;;;;;;;;;;5059460;28;20085;-61
2022/04/06 07:55:07;;;;;;;3.90;3.50;;;;;;;;;;5041916;28;20041;-59
2022/04/06 07:57:32;;;;;;;4.65;3.53;;;;;;;;;;5038433;28;20032;-59
2022/04/06 07:59:58;;;;;;;4.85;3.42;;;;;;;;;;5052750;28;20064;-61
2022/04/06 08:02:23;;;;;;;3.53;3.22;;;;;;;;;;5040050;28;20036;-59
2022/04/06 08:04:50;;;;;;;3.45;3.15;;;;;;;;;;5040673;28;20073;-59
2022/04/06 08:07:15;;;;;;;4.57;3.90;;;;;;;;;;5041981;28;20390;-60
2022/04/06 08:09:41;;;;;;;3.88;3.40;;;;;;;;;;5040760;28;20017;-60
2022/04/06 08:12:06;;;;;;;4.28;3.88;;;;;;;;;;5040188;28;20040;-60
2022/04/06 08:14:31;;;;;;;4.30;3.63;;;;;;;;;;5042319;28;20084;-61
2022/04/06 08:16:57;;;;;;;5.20;3.72;;;;;;;;;;5042977;28;20381;-61
2022/04/06 08:19:25;;;;;;;4.20;3.80;;;;;;;;;;5046742;28;20029;-61
2022/04/06 08:21:51;;;;;;;4.07;3.67;;;;;;;;;;5052807;28;20028;-61
2022/04/06 08:24:16;;;;;;;4.75;3.85;;;;;;;;;;5044309;28;20052;-60
2022/04/06 08:26:42;;;;;;;3.85;3.47;;;;;;;;;;5035733;28;20029;-60
2022/04/06 08:29:07;;;;;;;3.55;3.25;;;;;;;;;;5037871;28;20013;-60
2022/04/06 08:31:32;;;;;;;5.00;3.28;;;;;;;;;;5044866;28;20033;-60
2022/04/06 08:33:57;;;;;;;3.88;3.58;;;;;;;;;;5045099;28;20485;-59
2022/04/06 08:36:23;;;;;;;2.85;2.65;;;;;;;;;;5042270;28;20319;-61
2022/04/06 08:38:48;;;;;;;3.35;2.65;;;;;;;;;;5044214;28;20102;-60
2022/04/06 08:41:13;;;;;;;2.78;2.17;;;;;;;;;;5045033;28;20517;-61
2022/04/06 08:43:38;;;;;;;3.88;2.40;;;;;;;;;;5051973;28;20040;-62
2022/04/06 08:46:03;;;;;;;4.25;2.53;;;;;;;;;;5037620;28;20579;-61
2022/04/06 08:48:32;;;;;;;2.75;2.28;;;;;;;;;;5043668;28;20025;-60
2022/04/06 08:51:00;;;;;;;3.42;2.60;;;;;;;;;;5038800;28;20026;-61
2022/04/06 08:53:25;;;;;;;2.47;2.28;;;;;;;;;;5050986;28;20017;-60
2022/04/06 08:55:50;;;;;;;4.20;2.03;;;;;;;;;;5048662;28;20029;-60
2022/04/06 08:58:15;;;;;;;2.63;2.30;;;;;;;;;;5041987;28;20052;-59
2022/04/06 09:00:41;;;;;;;4.90;1.70;;;;;;;;;;5043175;28;20090;-60
2022/04/06 09:03:07;;;;;;;2.22;1.92;;;;;;;;;;5038659;28;20382;-60
2022/04/06 09:05:32;;;;;;;2.05;1.85;;;;;;;;;;5041968;28;20033;-60
2022/04/06 09:07:58;;;;;;;2.55;1.90;;;;;;;;;;5051562;28;20025;-59
2022/04/06 09:10:37;;;;;;;4.32;1.90;;;;;;;;;;5039005;28;20508;-60
2022/04/06 09:13:15;;;;;;;2.40;1.73;;;;;;;;;;5043278;28;20029;-60
2022/04/06 09:15:41;;;;;;;2.92;2.00;;;;;;;;;;5042231;28;20132;-60
2022/04/06 09:18:06;;;;;;;6.70;2.25;;;;;;;;;;5038932;28;20116;-60
2022/04/06 09:20:32;;;;;;;1.95;1.63;;;;;;;;;;5037409;28;20527;-60
2022/04/06 09:23:04;;;;;;;3.60;2.15;;;;;;;;;;5050706;28;20060;-60
2022/04/06 09:25:36;;;;;;;2.55;1.77;;;;;;;;;;5038229;28;20114;-59
2022/04/06 09:28:09;;;;;;;1.83;1.33;;;;;;;;;;5039267;28;20048;-59
2022/04/06 09:30:37;;;;;;;2.60;2.00;;;;;;;;;;5043252;28;20044;-59
2022/04/06 09:33:03;;;;;;;1.73;1.52;;;;;;;;;;5040599;28;20087;-59
2022/04/06 09:35:30;;;;;;;1.42;1.33;;;;;;;;;;5035940;28;20441;-59
2022/04/06 09:38:08;;;;;;;1.75;1.60;;;;;;;;;;5039796;28;20037;-59
2022/04/06 09:40:33;;;;;;;3.20;2.00;;;;;;;;;;5039410;28;20029;-59
2022/04/06 09:42:59;;;;;;;2.63;1.88;;;;;;;;;;5027591;28;20029;-59
2022/04/06 09:48:11;;;;;;;2.25;1.58;;;;;;;;;;5035319;28;20445;-60
2022/04/06 09:50:38;;;;;;;3.53;1.87;;;;;;;;;;5041762;28;20474;-60
2022/04/06 09:53:04;;;;;;;3.00;1.65;;;;;;;;;;5050885;28;20595;-60
2022/04/06 09:55:30;;;;;;;4.00;2.50;;;;;;;;;;5041196;28;20013;-59
2022/04/06 09:57:56;;;;;;;4.47;2.25;;;;;;;;;;5039768;28;20025;-59
2022/04/06 10:00:23;;;;;;;2.30;2.10;;;;;;;;;;5053194;28;20024;-60
2022/04/06 10:02:54;;;;;;;3.80;1.48;;;;;;;;;;5067606;28;20051;-60
2022/04/06 10:05:19;;;;;;;2.67;2.08;;;;;;;;;;5058141;28;20017;-60
2022/04/06 10:07:46;;;;;;;3.78;1.63;;;;;;;;;;5061223;28;20049;-60
2022/04/06 10:10:12;;;;;;;3.60;2.65;;;;;;;;;;5036067;28;20109;-59
2022/04/06 10:12:38;;;;;;;2.85;2.00;;;;;;;;;;5044703;28;20115;-60
2022/04/06 10:15:05;;;;;;;2.83;2.50;;;;;;;;;;5053407;28;20417;-59
2022/04/06 10:17:30;;;;;;;2.42;2.22;;;;;;;;;;5036687;28;20033;-59
2022/04/06 10:20:03;;;;;;;3.13;2.40;;;;;;;;;;5031366;28;20459;-59
2022/04/06 10:22:42;;;;;;;2.50;2.30;;;;;;;;;;5031967;28;20117;-59
2022/04/06 10:25:13;;;;;;;2.53;2.30;;;;;;;;;;5030477;28;20017;-59
2022/04/06 10:27:44;;;;;;;2.50;2.25;;;;;;;;;;5043939;28;20032;-60
2022/04/06 10:30:10;;;;;;;2.58;2.38;;;;;;;;;;5048622;28;20071;-59
2022/04/06 10:32:36;;;;;;;4.35;2.65;;;;;;;;;;5055480;28;20138;-59
2022/04/06 10:35:17;;;;;;;2.63;1.75;;;;;;;;;;5071872;28;20042;-59
2022/04/06 10:37:48;;;;;;;2.95;2.70;;;;;;;;;;5044022;28;20473;-59
2022/04/06 10:40:14;;;;;;;2.65;2.20;;;;;;;;;;5032065;28;20025;-59
2022/04/06 10:42:42;;;;;;;2.40;2.20;;;;;;;;;;5035681;28;20094;-60
2022/04/06 10:45:25;;;;;;;2.42;2.22;;;;;;;;;;5042391;28;20164;-58
2022/04/06 10:48:09;;;;;;;2.17;2.05;;;;;;;;;;5043437;28;20161;-61
2022/04/06 10:50:34;;;;;;;3.67;2.72;;;;;;;;;;5034080;28;20052;-61
2022/04/06 10:53:22;;;;;;;2.65;2.33;;;;;;;;;;5048096;28;20071;-60
2022/04/06 10:55:57;;;;;;;3.15;2.75;;;;;;;;;;5028959;28;20071;-60
2022/04/06 10:58:26;;;;;;;;;;;;;;;;;;5049102;28;20037;-61
2022/04/06 11:01:10;;;;;;;3.20;2.75;;;;;;;;;;5064422;28;20348;-61
2022/04/06 11:03:40;;;;;;;2.53;2.33;;;;;;;;;;5046452;28;20400;-61
2022/04/06 11:06:05;;;;;;;3.25;2.60;;;;;;;;;;5051679;28;20045;-60
2022/04/06 11:11:37;;;;;;;2.75;2.50;;;;;;;;;;5031396;28;20287;-61
2022/04/06 11:14:02;;;;;;;3.03;2.70;;;;;;;;;;5041965;28;20106;-60
2022/04/06 11:16:41;;;;;;;3.70;2.75;;;;;;;;;;5047080;28;20064;-60
2022/04/06 11:19:06;;;;;;;2.90;2.70;;;;;;;;;;5032355;28;20029;-61
2022/04/06 11:21:31;;;;;;;3.00;2.47;;;;;;;;;;5043924;28;20074;-60
2022/04/06 11:23:57;;;;;;;4.50;3.00;;;;;;;;;;5048423;28;20033;-61
2022/04/06 11:26:23;;;;;;;3.38;3.05;;;;;;;;;;5034877;28;20585;-61
2022/04/06 11:28:58;;;;;;;2.50;2.30;;;;;;;;;;5030131;28;20036;-61
2022/04/06 11:31:24;;;;;;;3.20;2.83;;;;;;;;;;5033399;28;20032;-61
2022/04/06 11:33:49;;;;;;;3.13;2.90;;;;;;;;;;5048453;28;20029;-60
2022/04/06 11:36:15;;;;;;;2.88;2.60;;;;;;;;;;5032295;28;20386;-61
2022/04/06 11:38:40;;;;;;;3.95;2.92;;;;;;;;;;5034027;28;20092;-61
2022/04/06 11:41:06;;;;;;;3.28;3.03;;;;;;;;;;5039785;28;20052;-60
2022/04/06 11:43:31;;;;;;;3.40;2.80;;;;;;;;;;5040181;28;20108;-61
2022/04/06 11:45:59;;;;;;;3.17;2.90;;;;;;;;;;5039653;28;20035;-61
2022/04/06 11:48:37;;;;;;;2.80;2.60;;;;;;;;;;5034857;28;20275;-61
2022/04/06 11:51:05;;;;;;;3.30;3.00;;;;;;;;;;5038460;28;20466;-60
2022/04/06 11:53:30;;;;;;;3.25;2.95;;;;;;;;;;5043839;28;20025;-60
2022/04/06 11:55:55;;;;;;;3.45;3.13;;;;;;;;;;5043391;28;20125;-61
2022/04/06 11:58:27;;;;;;;3.90;3.25;;;;;;;;;;5035602;28;20055;-60
2022/04/06 12:00:59;;;;;;;5.20;3.25;;;;;;;;;;5039958;28;20021;-60
2022/04/06 12:03:28;;;;;;;8.75;4.40;;;;;;;;;;5054293;28;20120;-60
2022/04/06 12:05:54;;;;;;;3.63;2.85;;;;;;;;;;5044039;28;20032;-59
2022/04/06 12:08:19;;;;;;;4.32;2.85;;;;;;;;;;5043069;28;20013;-60
2022/04/06 12:10:51;;;;;;;2.42;2.22;;;;;;;;;;5043484;28;20024;-60
2022/04/06 12:13:17;;;;;;;3.10;2.80;;;;;;;;;;5039724;28;20020;-59
2022/04/06 12:15:43;;;;;;;3.58;2.70;;;;;;;;;;5038286;28;20051;-60
2022/04/06 12:18:08;;;;;;;3.58;2.53;;;;;;;;;;5038670;28;20029;-61
2022/04/06 12:20:33;;;;;;;3.30;3.00;;;;;;;;;;5039482;28;20048;-61
2022/04/06 12:23:02;;;;;;;3.50;3.00;;;;;;;;;;5041054;28;20021;-61
2022/04/06 12:25:31;;;;;;;2.88;2.38;;;;;;;;;;5052696;28;20066;-61
2022/04/06 12:28:12;;;;;;;3.08;2.80;;;;;;;;;;5044036;28;20009;-61
2022/04/06 12:30:54;;;;;;;3.72;2.97;;;;;;;;;;5047718;28;20492;-60
2022/04/06 12:33:38;;;;;;;3.70;3.30;;;;;;;;;;5039628;28;20112;-61
2022/04/06 12:36:04;;;;;;;5.43;2.83;;;;;;;;;;5038413;28;20135;-61
2022/04/06 12:38:29;;;;;;;2.47;2.28;;;;;;;;;;5039504;28;20033;-61
2022/04/06 12:41:07;;;;;;;2.73;2.53;;;;;;;;;;5037215;28;20025;-61
2022/04/06 12:43:36;;;;;;;4.55;2.30;;;;;;;;;;5041532;28;20298;-61
2022/04/06 12:46:02;;;;;;;2.50;2.30;;;;;;;;;;5044837;28;20056;-60
2022/04/06 12:48:28;;;;;;;2.75;1.92;;;;;;;;;;5046245;28;20064;-60
2022/04/06 12:50:53;;;;;;;1.38;1.27;;;;;;;;;;5044905;28;20031;-60
2022/04/06 12:53:20;;;;;;;1.90;1.80;;;;;;;;;;5041673;28;20115;-60
2022/04/06 12:55:45;;;;;;;4.40;2.22;;;;;;;;;;5043180;28;20301;-60
2022/04/06 12:58:14;;;;;;;2.63;2.30;;;;;;;;;;5036230;28;20057;-61
2022/04/06 13:00:39;;;;;;;2.47;2.28;;;;;;;;;;5034416;28;20417;-60
2022/04/06 13:03:05;;;;;;;2.30;2.10;;;;;;;;;;5046945;28;20021;-60
2022/04/06 13:05:31;;;;;;;2.45;2.20;;;;;;;;;;5039558;28;20783;-60
2022/04/06 13:07:56;;;;;;;3.47;2.28;;;;;;;;;;5037306;28;20025;-61
2022/04/06 13:10:33;;;;;;;2.20;2.00;;;;;;;;;;5047643;28;20081;-61
2022/04/06 13:13:00;;;;;;;2.20;2.10;;;;;;;;;;5037310;28;20279;-60
2022/04/06 13:15:25;;;;;;;2.08;1.98;;;;;;;;;;5041279;28;20020;-61
2022/04/06 13:17:51;;;;;;;4.03;2.60;;;;;;;;;;5043886;28;20034;-61
2022/04/06 13:20:18;;;;;;;2.63;2.05;;;;;;;;;;5042135;28;20023;-61
2022/04/06 13:22:44;;;;;;;2.30;2.10;;;;;;;;;;5044124;28;20034;-61
2022/04/06 13:25:10;;;;;;;2.05;1.92;;;;;;;;;;5048344;28;20028;-61
2022/04/06 13:27:36;;;;;;;2.15;2.00;;;;;;;;;;5040203;28;20053;-61
2022/04/06 13:30:01;;;;;;;2.22;2.03;;;;;;;;;;5044163;28;20059;-60
2022/04/06 13:32:27;;;;;;;2.17;2.05;;;;;;;;;;5046444;28;20107;-61
2022/04/06 13:34:52;;;;;;;3.13;2.10;;;;;;;;;;5049625;28;20059;-60
2022/04/06 13:37:18;;;;;;;3.53;1.93;;;;;;;;;;5044961;28;20494;-61
2022/04/06 13:39:44;;;;;;;2.10;1.98;;;;;;;;;;5050099;28;20340;-61
2022/04/06 13:42:10;;;;;;;2.40;2.20;;;;;;;;;;5042430;28;20075;-61
2022/04/06 13:44:35;;;;;;;2.25;2.10;;;;;;;;;;5049715;28;20032;-60
2022/04/06 13:47:01;;;;;;;2.80;2.10;;;;;;;;;;5045163;28;20021;-61
2022/04/06 13:49:26;;;;;;;2.55;2.17;;;;;;;;;;5044245;28;20020;-60
2022/04/06 13:51:54;;;;;;;3.25;2.45;;;;;;;;;;5046040;28;20031;-60
2022/04/06 13:54:20;;;;;;;3.92;2.45;;;;;;;;;;5041722;28;20075;-61
2022/04/06 13:56:46;;;;;;;2.40;2.20;;;;;;;;;;5046917;28;20025;-61
2022/04/06 13:59:11;;;;;;;2.40;2.20;;;;;;;;;;5042061;28;20152;-60
2022/04/06 14:01:36;;;;;;;2.67;2.33;;;;;;;;;;5040518;28;20508;-60
2022/04/06 14:04:02;;;;;;;1.95;1.67;;;;;;;;;;5049350;28;20020;-61
2022/04/06 14:06:28;;;;;;;2.78;2.45;;;;;;;;;;5038546;28;20389;-61
2022/04/06 14:08:53;;;;;;;2.33;2.00;;;;;;;;;;5047376;28;20021;-61
2022/04/06 14:11:18;;;;;;;3.33;2.10;;;;;;;;;;5051598;28;20044;-60
2022/04/06 14:13:44;;;;;;;2.88;2.13;;;;;;;;;;5051030;28;20337;-61
2022/04/06 14:16:10;;;;;;;2.05;1.80;;;;;;;;;;5036070;28;20024;-61
2022/04/06 14:18:35;;;;;;;2.42;1.80;;;;;;;;;;5061157;28;20108;-60
2022/04/06 14:21:00;;;;;;;2.05;1.73;;;;;;;;;;5041896;28;20029;-61
2022/04/06 14:23:26;;;;;;;2.00;1.80;;;;;;;;;;5034289;28;20599;-60
2022/04/06 14:25:51;;;;;;;1.95;1.70;;;;;;;;;;5042697;28;20778;-61
2022/04/06 14:28:16;;;;;;;1.88;1.77;;;;;;;;;;5036838;28;20361;-61
2022/04/06 14:30:48;;;;;;;2.42;2.22;;;;;;;;;;5049935;28;20017;-61
2022/04/06 14:33:14;;;;;;;2.10;1.90;;;;;;;;;;5050020;28;20178;-61
2022/04/06 14:35:40;;;;;;;3.92;1.70;;;;;;;;;;5048328;28;20489;-60
2022/04/06 14:38:05;;;;;;;2.15;1.83;;;;;;;;;;5045583;28;20037;-60
2022/04/06 14:40:30;;;;;;;2.05;1.80;;;;;;;;;;5049929;28;20037;-61
2022/04/06 14:42:55;;;;;;;2.88;2.25;;;;;;;;;;5047305;28;20033;-60
2022/04/06 14:45:21;;;;;;;2.30;1.70;;;;;;;;;;5046830;28;20021;-60